OTBDOIKB

Guest
Details From OTBD - Doha Intl
To OIKB - Bandar Abbass Intl
Flight Number -
Tags Generated
Created
Modified
Stats Distance 284 nm / 526 km
Max Altitude 0 ft / 0 m
Waypoints 3
Social Downloads 1
Likes 0
Share VATSIM

Download

Looking for another format? Having issues loading an existing format? Contact us
Advertisement - Login to hide

Notes

Generated

Route

OTBD BND OIKB

ID Type Via Altitude Latitude Longitude Leg Dist Tot Dist Heading (true) Name
O OTBD APT - 0 ft / 0 m 25.28022˚ 51.55653˚ - 0 nm - -
BND VOR - 0 ft / 0 m 27.19706˚ 56.36678˚ 283 nm 283 nm 65° / 67° BANDAR ABBASS VOR-DME
O OIKB APT - 0 ft / 0 m 27.20505˚ 56.36861˚ 0 nm 284 nm 12° / 12° -

Altitude Profile

Advertisement - Login to hide

Weather


0- 5 10 15 20 25 30 35+ Temperature / ° C

Clouds and Precipitation
Forecast for 2017-12-13 00:00 UTC. Updated an hour ago

Ground ~20,000 ft ~40,000 ft Winds

OTBD

Details ICAO OTBD (DOH)
Name DOHA INTL
Region Qatar
Timezone Asia/Qatar (UTC+3.0)
Stats Elevation 35 ft / 11 m (AMSL)
Location 25.261056° 51.564999°
Runways 1
Magnetic Variation 2.481° E

METAR

OTBD 122200Z 29011KT 250V320 3000 DU NSC 17/02 Q1019 TEMPO 2000

Decode

TAF

TAF OTBD 121706Z 1218/1324 28008KT CAVOK TEMPO 1308/1313 34067KT

Decode

Departure Runways

ID Width Length Bearing (true) Bearing (mag) Surface Threshold Offset Overrun Length
16 151 ft / 46 m 15,065 ft / 4,592 m 158.20° 155.72° Asphalt 2,460 ft / 750 m 98 ft / 30 m
34 151 ft / 46 m 15,065 ft / 4,592 m 338.21° 335.73° Asphalt 0 ft / 0 m 460 ft / 140 m

OIKB

Details ICAO OIKB (BND)
Name BANDAR ABBASS INTL
Region Iran
Timezone Asia/Tehran (UTC+3.5)
Stats Elevation 22 ft / 7 m (AMSL)
Location 27.218316° 56.377852°
Runways 2
Magnetic Variation 2.316° E

METAR

OIKB 122200Z 35008KT 6000 NSC 16/M06 Q1017 A3006

Decode

TAF

TAF OIKB 121730Z 1218/1324 03004MPS 6000 NSC TEMPO 1305/1310 08008MPS 4000 SA

Decode

Destination Runways

ID Width Length Bearing (true) Bearing (mag) Surface Threshold Offset Overrun Length
03L 98 ft / 30 m 11,370 ft / 3,466 m 27.64° 25.32° Asphalt 0 ft / 0 m 984 ft / 300 m
03R 148 ft / 45 m 12,040 ft / 3,670 m 27.64° 25.32° Asphalt 0 ft / 0 m 1,198 ft / 365 m
21L 148 ft / 45 m 12,040 ft / 3,670 m 207.65° 205.33° Asphalt 0 ft / 0 m 1,198 ft / 365 m
21R 98 ft / 30 m 11,370 ft / 3,466 m 207.64° 205.32° Asphalt 0 ft / 0 m 0 ft / 0 m

Approach Navaids

Runway Type Ident Frequency Range Bearing (true) Bearing (mag) Slope Elevation
21L Localiser IBND 109.90 MHz 18 nm / 33 km 208.03° 205.71° - 3 ft / 1 m (AMSL)
21L Glidescope IBND 109.90 MHz 10 nm / 19 km 207.64° 205.33° 2.98° 12 ft / 4 m (AMSL)
21L DME IBND 109.90 MHz 18 nm / 33 km - - - 12 ft / 4 m (AMSL)